Time;durP1;ratioP1;P1;durP2;ratioP2;P2;SDS_P1;SDS_P2;PMS_P1;PMS_P2;Temp;Humidity;BMP_temperature;BMP_pressure;BME280_temperature;BME280_humidity;BME280_pressure;Samples;Min_cycle;Max_cycle;Signal;HPM_P1;HPM_P2
2022/08/10 00:00:22;;;;;;;5.53;1.75;;;;;;;20.21;58.64;102336.72;4986791;28;20037;-83
2022/08/10 00:02:54;;;;;;;6.40;2.35;;;;;;;20.19;58.64;102323.75;4985270;28;20034;-83
2022/08/10 00:05:20;;;;;;;3.20;1.63;;;;;;;20.13;58.94;102326.28;4991987;28;20045;-82
2022/08/10 00:07:47;;;;;;;3.53;1.77;;;;;;;20.12;58.82;102322.03;4983894;28;20439;-82
2022/08/10 00:10:16;;;;;;;1.70;1.40;;;;;;;20.11;58.73;102320.38;5007647;28;20045;-83
2022/08/10 00:12:42;;;;;;;4.93;1.80;;;;;;;20.08;58.98;102316.31;4990950;28;20040;-83
2022/08/10 00:15:18;;;;;;;4.30;1.70;;;;;;;20.09;58.93;102319.75;5006186;28;20797;-83
2022/08/10 00:17:43;;;;;;;8.23;1.92;;;;;;;20.05;59.21;102323.75;5002722;28;20033;-83
2022/08/10 00:20:10;;;;;;;6.38;1.70;;;;;;;20.02;59.12;102317.00;5022067;28;20033;-82
2022/08/10 00:22:35;;;;;;;3.45;1.73;;;;;;;19.98;59.08;102311.28;4988926;28;20036;-83
2022/08/10 00:25:01;;;;;;;3.55;1.70;;;;;;;19.96;59.12;102317.75;5001461;28;20037;-83
2022/08/10 00:27:28;;;;;;;4.75;1.80;;;;;;;19.90;59.17;102310.59;5004764;28;20466;-82
2022/08/10 00:29:53;;;;;;;8.95;2.55;;;;;;;19.92;58.86;102314.66;4994321;28;20478;-83
2022/08/10 00:32:19;;;;;;;3.13;1.80;;;;;;;19.88;58.75;102309.97;5008813;28;20041;-84
2022/08/10 00:34:45;;;;;;;7.22;1.77;;;;;;;19.89;58.67;102319.47;5010874;28;21717;-83
2022/08/10 00:37:12;;;;;;;2.65;1.75;;;;;;;19.87;58.73;102310.94;4993225;28;20025;-83
2022/08/10 00:39:38;;;;;;;4.97;1.85;;;;;;;19.86;58.76;102302.25;5003616;28;20041;-82
2022/08/10 00:42:08;;;;;;;2.85;1.70;;;;;;;19.87;58.77;102309.13;4986438;28;20542;-83
2022/08/10 00:44:36;;;;;;;7.50;2.10;;;;;;;19.81;59.01;102305.41;5002354;28;20029;-83
2022/08/10 00:47:01;;;;;;;3.15;1.30;;;;;;;19.77;59.05;102306.75;5006964;28;20022;-83
2022/08/10 00:49:27;;;;;;;2.47;1.35;;;;;;;19.75;59.11;102300.06;4994953;28;20028;-82
2022/08/10 00:51:53;;;;;;;7.38;1.92;;;;;;;19.74;59.30;102301.03;4994215;28;20090;-83
2022/08/10 00:54:19;;;;;;;3.78;1.50;;;;;;;19.73;59.40;102299.41;4994190;28;20120;-82
2022/08/10 00:56:44;;;;;;;10.05;2.15;;;;;;;19.73;59.57;102299.41;4991258;28;20088;-84
2022/08/10 00:59:10;;;;;;;3.55;1.65;;;;;;;19.65;59.66;102298.47;4998232;28;20040;-83
2022/08/10 01:01:36;;;;;;;3.83;2.30;;;;;;;19.61;60.00;102302.47;5005403;28;20057;-84
2022/08/10 01:04:03;;;;;;;4.78;2.00;;;;;;;19.56;60.02;102299.53;5005836;28;20036;-82
2022/08/10 01:06:57;;;;;;;7.10;2.45;;;;;;;19.56;60.16;102296.09;4996725;28;20095;-83
2022/08/10 01:09:44;;;;;;;3.22;1.73;;;;;;;19.56;60.12;102299.53;4991415;28;20626;-83
2022/08/10 01:12:17;;;;;;;3.38;1.73;;;;;;;19.56;60.71;102304.00;5003080;28;20038;-82
2022/08/10 01:15:18;;;;;;;3.38;2.20;;;;;;;19.46;61.22;102301.63;4990560;28;20029;-82
2022/08/10 01:18:10;;;;;;;4.88;1.73;;;;;;;19.38;61.33;102288.53;5001000;28;20124;-83
2022/08/10 01:20:51;;;;;;;4.93;2.03;;;;;;;19.33;61.60;102302.22;4992112;28;20095;-83
2022/08/10 01:23:42;;;;;;;7.65;2.50;;;;;;;19.30;61.62;102299.13;5004889;28;20052;-82
2022/08/10 01:26:43;;;;;;;3.35;1.80;;;;;;;19.32;61.49;102290.06;4988814;28;20029;-82
2022/08/10 01:29:45;;;;;;;3.00;1.40;;;;;;;19.25;61.80;102289.97;4975586;28;20038;-83
2022/08/10 01:32:13;;;;;;;5.15;1.85;;;;;;;19.23;61.79;102288.50;4991376;28;20073;-82
2022/08/10 01:34:52;;;;;;;7.80;2.88;;;;;;;19.19;62.18;102290.69;4994519;28;20047;-82
2022/08/10 01:37:23;;;;;;;5.30;1.83;;;;;;;19.10;62.60;102283.03;5006224;28;20041;-82
2022/08/10 01:39:57;;;;;;;8.43;2.85;;;;;;;19.04;63.04;102281.91;5009470;28;20494;-83
2022/08/10 01:42:24;;;;;;;2.90;1.85;;;;;;;18.97;63.84;102283.63;4995774;28;20541;-82
2022/08/10 01:48:42;;;;;;;5.38;1.80;;;;;;;18.65;66.05;102277.56;5012291;28;20140;-83
2022/08/10 01:51:14;;;;;;;5.47;1.95;;;;;;;18.62;66.11;102285.78;5007274;28;20141;-83
2022/08/10 01:53:50;;;;;;;4.90;2.22;;;;;;;18.58;66.22;102280.06;4989720;28;20113;-82
2022/08/10 01:56:19;;;;;;;4.40;1.92;;;;;;;18.55;66.41;102283.03;4993178;28;20044;-82
2022/08/10 01:58:48;;;;;;;5.00;1.90;;;;;;;18.58;66.11;102284.50;4992416;28;20030;-82
2022/08/10 02:01:17;;;;;;;6.07;2.22;;;;;;;18.59;66.11;102284.34;4990122;28;20060;-82
2022/08/10 02:03:46;;;;;;;5.50;2.28;;;;;;;18.51;66.65;102280.94;4991593;28;20029;-82
2022/08/10 02:06:19;;;;;;;6.75;1.90;;;;;;;18.48;66.76;102285.53;4988975;28;20037;-82
2022/08/10 02:08:45;;;;;;;;;;;;;;;18.52;66.40;102285.22;4994861;28;20057;-83
2022/08/10 02:11:13;;;;;;;5.15;2.13;;;;;;;18.52;66.20;102287.84;4992010;28;19987;-82
2022/08/10 02:13:41;;;;;;;3.17;2.35;;;;;;;18.52;66.04;102293.09;4999600;28;20106;-82
2022/08/10 02:16:08;;;;;;;4.30;1.98;;;;;;;18.51;65.94;102283.56;5004604;28;20037;-83
2022/08/10 02:18:35;;;;;;;3.05;1.92;;;;;;;18.49;65.91;102279.28;4991374;28;20128;-82
2022/08/10 02:21:05;;;;;;;4.82;2.10;;;;;;;18.47;65.97;102283.91;4993740;28;20386;-82
2022/08/10 02:23:33;;;;;;;2.65;1.88;;;;;;;18.45;66.21;102295.56;4994912;28;20033;-82
2022/08/10 02:26:02;;;;;;;3.83;2.05;;;;;;;18.43;66.14;102284.41;5011651;28;20041;-83
2022/08/10 02:28:30;;;;;;;4.53;1.92;;;;;;;18.45;65.98;102282.44;4992963;28;20034;-82
2022/08/10 02:31:00;;;;;;;6.32;2.08;;;;;;;18.45;65.85;102288.50;4990016;28;20033;-82
2022/08/10 02:33:27;;;;;;;3.03;1.65;;;;;;;18.39;65.98;102288.38;5000711;28;20041;-83
2022/08/10 02:35:54;;;;;;;5.05;2.35;;;;;;;18.37;66.22;102287.75;5006513;28;20369;-82
2022/08/10 02:38:36;;;;;;;3.72;1.90;;;;;;;18.35;66.15;102287.91;4989155;28;20034;-83
2022/08/10 02:41:16;;;;;;;4.13;2.00;;;;;;;18.34;66.16;102288.06;5005675;28;20029;-82
2022/08/10 02:43:49;;;;;;;5.90;2.25;;;;;;;18.33;66.01;102287.25;4990799;28;20490;-82
2022/08/10 02:46:28;;;;;;;6.00;1.90;;;;;;;18.28;66.29;102287.75;5002450;28;20033;-81
2022/08/10 02:49:02;;;;;;;3.75;1.90;;;;;;;18.22;66.63;102285.03;4991523;28;20774;-82
2022/08/10 02:51:43;;;;;;;7.35;1.63;;;;;;;18.19;66.84;102290.59;5005811;28;20258;-83
2022/08/10 02:54:19;;;;;;;4.68;2.03;;;;;;;18.18;66.88;102294.22;4990986;28;20057;-82
2022/08/10 02:57:01;;;;;;;5.07;2.00;;;;;;;18.16;66.96;102288.31;4995145;28;20433;-82
2022/08/10 02:59:32;;;;;;;4.95;2.50;;;;;;;18.08;67.30;102292.63;4994628;28;20116;-83
2022/08/10 03:02:01;;;;;;;4.45;2.20;;;;;;;18.02;67.71;102285.41;5012386;28;20379;-82
2022/08/10 03:04:33;;;;;;;2.80;2.00;;;;;;;17.99;67.62;102288.38;4993418;28;20035;-83
2022/08/10 03:07:03;;;;;;;9.10;2.53;;;;;;;17.96;67.71;102280.84;4998034;28;20120;-82
2022/08/10 03:09:31;;;;;;;5.20;2.53;;;;;;;17.93;68.17;102282.97;5009125;28;20060;-82
2022/08/10 03:11:58;;;;;;;3.63;2.00;;;;;;;17.92;67.85;102281.34;4992907;28;20041;-82
2022/08/10 03:14:25;;;;;;;3.45;1.98;;;;;;;17.92;67.94;102278.72;4991932;28;20495;-82
2022/08/10 03:16:53;;;;;;;4.25;1.98;;;;;;;17.87;68.35;102280.03;5005697;28;20037;-82
2022/08/10 03:19:20;;;;;;;4.95;2.15;;;;;;;17.84;68.89;102279.53;4993794;28;20064;-82
2022/08/10 03:21:47;;;;;;;3.70;2.22;;;;;;;17.81;68.92;102269.38;4993753;28;20057;-82
2022/08/10 03:24:13;;;;;;;4.38;2.38;;;;;;;17.78;68.98;102270.53;4993924;28;20606;-82
2022/08/10 03:26:40;;;;;;;5.53;2.47;;;;;;;17.75;69.00;102280.56;4993736;28;20033;-82
2022/08/10 03:29:07;;;;;;;4.05;2.38;;;;;;;17.74;68.98;102284.94;5022669;28;20034;-82
2022/08/10 03:31:33;;;;;;;5.05;2.08;;;;;;;17.70;69.09;102279.22;5006563;28;20065;-83
2022/08/10 03:34:01;;;;;;;5.97;1.85;;;;;;;17.67;69.02;102286.63;4988387;28;20048;-83
2022/08/10 03:36:27;;;;;;;2.58;1.80;;;;;;;17.64;69.47;102284.34;5018749;28;20030;-83
2022/08/10 03:38:53;;;;;;;2.88;1.88;;;;;;;17.61;69.70;102276.78;4991392;28;20059;-82
2022/08/10 03:41:49;;;;;;;4.65;1.98;;;;;;;17.58;69.57;102272.72;5002872;28;20061;-82
2022/08/10 03:44:19;;;;;;;4.47;2.10;;;;;;;17.55;69.96;102280.91;4989479;28;20040;-82
2022/08/10 03:46:46;;;;;;;4.20;2.40;;;;;;;17.52;69.72;102282.06;4990922;28;20095;-82
2022/08/10 03:49:13;;;;;;;4.28;2.50;;;;;;;17.49;69.91;102276.31;5004727;28;20120;-82
2022/08/10 03:51:40;;;;;;;4.25;2.40;;;;;;;17.43;69.94;102277.81;4994479;28;20033;-82
2022/08/10 03:54:06;;;;;;;5.28;2.38;;;;;;;17.39;70.24;102280.94;4990747;28;20053;-82
2022/08/10 03:56:37;;;;;;;5.25;3.00;;;;;;;17.34;70.45;102283.22;5001398;28;20082;-82
2022/08/10 03:59:05;;;;;;;5.97;2.33;;;;;;;17.29;70.72;102283.69;4990308;28;20450;-82
2022/08/10 04:01:30;;;;;;;4.20;2.33;;;;;;;17.21;71.06;102281.91;4986347;28;20359;-82
2022/08/10 04:03:56;;;;;;;6.20;2.75;;;;;;;17.19;71.16;102270.75;5004937;28;20045;-82
2022/08/10 04:06:21;;;;;;;6.22;2.30;;;;;;;17.16;71.31;102278.97;4990729;28;20029;-82
2022/08/10 04:08:47;;;;;;;3.63;2.75;;;;;;;17.17;71.17;102282.41;5006002;28;20398;-82
2022/08/10 04:11:12;;;;;;;4.38;2.65;;;;;;;17.14;71.26;102286.19;5009938;28;20029;-82
2022/08/10 04:13:38;;;;;;;4.80;2.70;;;;;;;17.09;71.41;102286.66;4993431;28;20029;-82
2022/08/10 04:16:04;;;;;;;3.65;2.60;;;;;;;17.06;71.75;102283.53;4990667;28;20581;-82
2022/08/10 04:18:31;;;;;;;4.35;2.55;;;;;;;17.02;72.18;102280.41;5006907;28;20030;-81
2022/08/10 04:21:11;;;;;;;4.38;2.50;;;;;;;16.92;72.62;102293.69;4993754;28;20068;-82
2022/08/10 04:23:42;;;;;;;5.57;2.55;;;;;;;16.91;72.11;102291.22;5003640;28;20052;-82
2022/08/10 04:26:10;;;;;;;5.85;2.90;;;;;;;16.93;71.89;102295.34;4989682;28;20040;-82
2022/08/10 04:28:36;;;;;;;5.70;2.72;;;;;;;16.95;71.87;102291.72;4996988;28;20041;-82
2022/08/10 04:31:05;;;;;;;6.65;3.38;;;;;;;16.96;71.98;102293.38;4994959;28;20026;-83
2022/08/10 04:33:32;;;;;;;9.65;2.95;;;;;;;16.98;72.13;102297.47;5001482;28;20036;-82
2022/08/10 04:35:59;;;;;;;4.60;2.80;;;;;;;16.96;72.57;102296.00;4991927;28;20053;-82
2022/08/10 04:38:26;;;;;;;6.22;3.33;;;;;;;16.92;73.13;102296.31;5002906;28;20076;-82
2022/08/10 04:40:52;;;;;;;5.88;2.90;;;;;;;16.91;72.98;102294.69;5009869;28;20108;-82
2022/08/10 04:43:17;;;;;;;6.80;2.80;;;;;;;16.92;72.48;102291.06;4993996;28;20120;-82
2022/08/10 04:45:44;;;;;;;7.20;3.28;;;;;;;16.94;72.66;102288.28;4997514;28;20029;-82
2022/08/10 04:48:09;;;;;;;6.68;3.17;;;;;;;16.94;72.73;102290.91;4998182;28;20033;-81
2022/08/10 04:50:35;;;;;;;7.55;3.90;;;;;;;16.95;72.81;102289.91;5005736;28;20036;-82
2022/08/10 04:53:00;;;;;;;6.68;2.85;;;;;;;16.91;73.30;102284.19;4996034;28;20108;-82
2022/08/10 04:55:26;;;;;;;8.38;4.05;;;;;;;16.84;74.24;102295.47;5014868;28;20033;-82
2022/08/10 04:57:51;;;;;;;9.15;3.50;;;;;;;16.77;74.66;102287.41;5007078;28;20037;-82
2022/08/10 05:00:17;;;;;;;8.18;3.30;;;;;;;16.74;75.12;102285.09;5010741;28;20042;-82
2022/08/10 05:02:43;;;;;;;4.68;3.00;;;;;;;16.76;75.24;102284.94;5008786;28;20029;-82
2022/08/10 05:05:08;;;;;;;8.68;3.85;;;;;;;16.81;75.04;102287.91;4995222;28;20053;-83
2022/08/10 05:07:34;;;;;;;7.32;3.35;;;;;;;16.82;75.53;102289.53;5011271;28;20084;-82
2022/08/10 05:09:59;;;;;;;6.25;3.10;;;;;;;16.81;76.08;102286.09;5010635;28;20563;-82
2022/08/10 05:12:34;;;;;;;9.90;3.33;;;;;;;16.84;76.18;102287.59;4996374;28;20033;-82
2022/08/10 05:15:00;;;;;;;6.10;3.65;;;;;;;16.86;76.24;102289.09;4995447;28;20099;-82
2022/08/10 05:17:25;;;;;;;5.65;3.10;;;;;;;16.89;76.43;102290.56;5010610;28;20030;-81
2022/08/10 05:19:51;;;;;;;7.22;3.42;;;;;;;16.91;76.64;102291.22;4994314;28;20029;-83
2022/08/10 05:22:16;;;;;;;5.13;3.35;;;;;;;16.94;76.17;102283.03;4997837;28;20025;-82
2022/08/10 05:24:42;;;;;;;8.43;3.60;;;;;;;16.97;76.38;102284.50;5014501;28;20026;-82
2022/08/10 05:27:08;;;;;;;6.10;3.38;;;;;;;17.02;77.07;102290.91;4998217;28;20441;-82
2022/08/10 05:29:33;;;;;;;10.57;4.90;;;;;;;17.03;77.04;102291.75;5013181;28;20684;-82
2022/08/10 05:31:59;;;;;;;7.55;3.60;;;;;;;17.04;77.51;102286.31;4996639;28;20034;-82
2022/08/10 05:34:27;;;;;;;6.65;3.95;;;;;;;17.09;77.20;102289.28;4994418;28;20077;-82
2022/08/10 05:36:54;;;;;;;8.45;4.25;;;;;;;17.15;77.37;102290.44;4997690;28;20060;-83
2022/08/10 05:39:22;;;;;;;6.75;4.30;;;;;;;17.18;77.20;102294.50;4986180;28;20057;-82
2022/08/10 05:41:51;;;;;;;9.32;3.65;;;;;;;17.22;77.33;102288.78;4993744;28;20029;-83
2022/08/10 05:44:17;;;;;;;10.63;4.95;;;;;;;17.26;77.38;102300.59;5030553;28;20050;-82
2022/08/10 05:46:42;;;;;;;8.38;4.18;;;;;;;17.34;77.21;102302.38;5006952;28;20394;-82
2022/08/10 05:49:08;;;;;;;9.02;3.90;;;;;;;17.40;77.21;102299.09;4998822;28;20032;-82
2022/08/10 05:51:34;;;;;;;9.73;4.50;;;;;;;17.48;77.16;102300.91;4998464;28;20037;-83
2022/08/10 05:54:00;;;;;;;15.65;4.78;;;;;;;17.52;76.83;102304.84;4993194;28;20029;-83
2022/08/10 05:56:27;;;;;;;12.90;4.78;;;;;;;17.64;76.06;102302.69;4997556;28;20120;-84
2022/08/10 05:58:53;;;;;;;13.82;4.53;;;;;;;17.74;75.54;102297.25;5010442;28;20470;-84
2022/08/10 06:01:23;;;;;;;7.15;3.72;;;;;;;17.88;75.31;102299.25;5010144;28;20029;-83
2022/08/10 06:03:58;;;;;;;9.35;4.25;;;;;;;18.23;73.71;102299.75;5008592;28;20033;-84
2022/08/10 06:06:26;;;;;;;10.57;4.15;;;;;;;18.51;71.44;102301.94;4985735;28;20033;-83
2022/08/10 06:08:52;;;;;;;9.75;4.05;;;;;;;18.99;68.80;102303.47;4990934;28;20121;-83
2022/08/10 06:11:21;;;;;;;16.25;3.78;;;;;;;19.24;67.20;102304.09;5010419;28;20522;-84
2022/08/10 06:16:33;;;;;;;9.63;3.90;;;;;;;19.58;66.35;102304.63;5005747;28;20041;-83
2022/08/10 06:19:00;;;;;;;10.13;3.38;;;;;;;19.78;65.89;102300.50;5002126;28;20128;-83
2022/08/10 06:21:27;;;;;;;7.30;3.15;;;;;;;19.90;64.27;102298.25;4994099;28;20118;-83
2022/08/10 06:23:53;;;;;;;9.98;3.55;;;;;;;20.05;63.67;102310.59;5009410;28;20022;-83
2022/08/10 06:26:19;;;;;;;10.20;3.05;;;;;;;20.20;63.03;102304.31;4995574;28;20045;-83
2022/08/10 06:29:08;;;;;;;5.80;3.30;;;;;;;20.47;61.33;102301.97;5005236;28;20041;-84
2022/08/10 06:31:37;;;;;;;4.68;3.00;;;;;;;20.72;61.54;102293.75;5000382;28;20046;-82
2022/08/10 06:34:05;;;;;;;7.72;3.13;;;;;;;20.98;60.95;102291.41;5024839;28;20052;-84
2022/08/10 06:36:32;;;;;;;6.07;2.38;;;;;;;21.16;59.83;102295.38;5001185;28;20033;-84
2022/08/10 06:38:57;;;;;;;8.93;2.90;;;;;;;21.15;59.54;102291.94;5008323;28;20049;-84
2022/08/10 06:41:27;;;;;;;9.93;3.03;;;;;;;21.14;59.18;102292.13;5009341;28;20018;-84
2022/08/10 06:44:04;;;;;;;10.05;5.28;;;;;;;21.11;58.56;102295.94;4992905;28;20029;-84
2022/08/10 06:46:34;;;;;;;7.53;3.80;;;;;;;21.10;58.94;102286.41;5008311;28;20049;-83
2022/08/10 06:49:03;;;;;;;6.07;2.70;;;;;;;21.04;59.86;102299.53;4994534;28;20041;-82
2022/08/10 06:51:30;;;;;;;4.30;2.58;;;;;;;20.92;59.59;102284.22;5008411;28;20433;-84
2022/08/10 06:54:00;;;;;;;8.05;3.15;;;;;;;20.94;58.85;102292.75;4992910;28;20041;-84
2022/08/10 06:56:30;;;;;;;4.70;2.75;;;;;;;20.90;58.65;102290.69;5002733;28;20037;-86
2022/08/10 06:59:15;;;;;;;7.75;3.10;;;;;;;20.86;59.34;102294.72;5006185;28;21929;-84
2022/08/10 07:01:44;;;;;;;8.55;2.83;;;;;;;20.89;57.41;102287.25;4985611;28;20124;-84
2022/08/10 07:04:34;;;;;;;4.75;2.47;;;;;;;21.09;56.23;102295.31;4988624;28;20082;-85
2022/08/10 07:07:04;;;;;;;13.75;2.95;;;;;;;21.42;55.72;102292.16;5009511;28;20124;-83
2022/08/10 07:09:32;;;;;;;4.05;2.17;;;;;;;21.65;53.88;102297.19;5004234;28;20728;-83
2022/08/10 07:11:58;;;;;;;4.97;2.90;;;;;;;22.29;52.29;102296.09;5009743;28;20029;-83
2022/08/10 07:14:25;;;;;;;10.50;2.75;;;;;;;22.81;51.35;102292.97;5007516;28;20056;-82
2022/08/10 07:16:52;;;;;;;6.05;2.45;;;;;;;23.38;49.60;102290.78;5001311;28;20029;-83
2022/08/10 07:19:19;;;;;;;5.13;2.53;;;;;;;23.76;48.70;102290.91;5004205;28;20033;-83
2022/08/10 07:21:47;;;;;;;5.95;2.10;;;;;;;24.38;47.57;102288.63;4987511;28;20113;-84
2022/08/10 07:24:14;;;;;;;7.70;2.28;;;;;;;24.67;46.97;102289.91;5007789;28;20038;-84
2022/08/10 07:26:49;;;;;;;5.53;2.13;;;;;;;25.24;46.07;102281.09;5006100;28;20052;-86
2022/08/10 07:29:19;;;;;;;6.95;2.10;;;;;;;25.16;44.78;102287.47;5018733;28;20375;-85
2022/08/10 07:31:48;;;;;;;5.40;2.33;;;;;;;25.36;44.25;102291.84;4998451;28;20487;-84
2022/08/10 07:34:18;;;;;;;5.38;2.00;;;;;;;25.75;43.98;102287.97;4995083;28;20033;-84
2022/08/10 07:36:46;;;;;;;7.15;2.47;;;;;;;25.96;43.31;102289.38;4986594;28;20087;-84
2022/08/10 07:39:13;;;;;;;5.45;1.55;;;;;;;26.39;42.55;102285.72;4984019;28;20049;-84
2022/08/10 07:41:45;;;;;;;5.80;2.10;;;;;;;26.84;42.21;102292.44;4993480;28;20534;-84
2022/08/10 07:44:12;;;;;;;4.47;2.15;;;;;;;27.02;40.48;102290.75;4988780;28;20075;-84
2022/08/10 07:46:44;;;;;;;5.80;2.45;;;;;;;27.33;40.41;102290.44;4988062;28;20045;-84
2022/08/10 07:49:16;;;;;;;5.45;2.63;;;;;;;27.35;39.92;102293.66;5004089;28;20038;-84
2022/08/10 07:51:42;;;;;;;4.97;2.50;;;;;;;27.86;39.26;102293.91;5008516;28;20037;-84
2022/08/10 07:54:14;;;;;;;7.43;2.45;;;;;;;28.01;37.60;102296.09;5010843;28;20602;-83
2022/08/10 07:56:42;;;;;;;8.23;2.58;;;;;;;27.92;37.22;102293.00;4989860;28;20034;-85
2022/08/10 07:59:10;;;;;;;6.55;3.45;;;;;;;28.18;36.72;102296.16;4997640;28;20533;-84
2022/08/10 08:01:41;;;;;;;7.10;2.38;;;;;;;28.15;36.75;102296.63;4999058;28;20033;-84
2022/08/10 08:04:10;;;;;;;5.97;2.10;;;;;;;28.30;36.98;102294.22;5014300;28;20029;-84
2022/08/10 08:06:37;;;;;;;5.63;2.00;;;;;;;28.53;36.84;102300.53;5010354;28;20083;-84
2022/08/10 08:09:03;;;;;;;3.70;2.08;;;;;;;29.05;36.21;102296.81;5008740;28;20033;-84
2022/08/10 08:11:30;;;;;;;7.90;2.40;;;;;;;29.31;35.22;102295.34;4999585;28;20037;-82
2022/08/10 08:13:59;;;;;;;7.80;2.38;;;;;;;29.54;34.27;102293.50;5012154;28;20033;-85
2022/08/10 08:16:25;;;;;;;5.25;1.95;;;;;;;29.83;33.94;102296.81;4999843;28;20022;-85
2022/08/10 08:18:53;;;;;;;5.07;2.20;;;;;;;29.30;34.11;102291.84;4997320;28;20064;-84
2022/08/10 08:21:20;;;;;;;4.10;1.92;;;;;;;29.60;34.07;102293.31;5000615;28;20124;-83
2022/08/10 08:23:48;;;;;;;8.52;3.10;;;;;;;29.65;34.31;102287.22;4991576;28;20041;-82
2022/08/10 08:26:21;;;;;;;6.90;2.10;;;;;;;30.07;32.69;102289.31;5001839;28;20120;-83
2022/08/10 08:28:48;;;;;;;6.68;1.90;;;;;;;30.27;33.57;102286.84;5015785;28;20106;-84
2022/08/10 08:31:14;;;;;;;8.85;2.35;;;;;;;30.52;33.39;102295.38;5009245;28;20041;-83
2022/08/10 08:33:43;;;;;;;5.85;2.20;;;;;;;30.23;33.20;102292.94;5012255;28;20029;-82
2022/08/10 08:36:10;;;;;;;4.82;1.85;;;;;;;30.33;31.83;102287.72;5009625;28;20084;-83
2022/08/10 08:38:37;;;;;;;5.57;2.67;;;;;;;30.41;32.07;102283.78;4998877;28;20033;-82
2022/08/10 08:41:35;;;;;;;6.95;2.05;;;;;;;30.85;32.04;102279.06;4991844;28;20069;-83
2022/08/10 08:44:18;;;;;;;5.43;2.13;;;;;;;30.42;31.87;102277.34;4999124;28;20045;-82
2022/08/10 08:47:06;;;;;;;6.60;2.33;;;;;;;30.17;32.46;102273.38;5011285;28;20498;-83
2022/08/10 08:50:09;;;;;;;7.80;1.85;;;;;;;30.76;31.74;102274.41;4996792;28;20217;-83
2022/08/10 08:52:54;;;;;;;;;;;;;;;30.74;32.14;102273.88;4988419;28;20034;-83
2022/08/10 08:55:56;;;;;;;6.45;1.70;;;;;;;31.23;31.90;102262.94;5000939;28;19968;-83
2022/08/10 08:58:27;;;;;;;4.45;1.92;;;;;;;30.76;32.07;102269.06;4997766;28;20141;-80
2022/08/10 09:01:22;;;;;;;3.58;2.47;;;;;;;30.85;31.24;102262.16;4999375;28;20099;-82
2022/08/10 09:04:06;;;;;;;6.60;2.00;;;;;;;31.19;31.73;102270.72;5011102;28;20044;-83
2022/08/10 09:06:50;;;;;;;3.15;2.17;;;;;;;31.31;31.68;102264.34;5015370;28;20049;-81
2022/08/10 09:09:31;;;;;;;8.15;2.35;;;;;;;31.78;31.00;102263.47;5005068;28;20029;-82
2022/08/10 09:12:12;;;;;;;5.25;1.92;;;;;;;31.08;31.17;102266.38;4994497;28;20034;-82
2022/08/10 09:14:51;;;;;;;5.18;1.85;;;;;;;31.03;31.37;102259.09;5009104;28;20029;-82
2022/08/10 09:17:41;;;;;;;3.85;1.90;;;;;;;31.59;30.19;102258.56;5011322;28;20030;-82
2022/08/10 09:20:21;;;;;;;4.60;1.95;;;;;;;31.62;29.75;102252.66;5015723;28;20048;-83
2022/08/10 09:23:02;;;;;;;5.82;2.03;;;;;;;31.74;29.93;102244.41;5028373;28;20081;-83
2022/08/10 09:25:36;;;;;;;3.63;2.20;;;;;;;31.81;30.17;102249.50;4998076;28;20038;-82
2022/08/10 09:28:08;;;;;;;7.72;2.33;;;;;;;31.82;30.36;102246.56;4995250;28;20042;-84
2022/08/10 09:30:50;;;;;;;7.97;2.93;;;;;;;31.57;30.48;102243.81;5006759;28;20475;-82
2022/08/10 09:33:24;;;;;;;4.20;2.30;;;;;;;32.05;29.73;102241.81;5016597;28;20774;-82
2022/08/10 09:36:11;;;;;;;5.65;2.00;;;;;;;32.07;30.36;102239.66;4995144;28;20030;-83
2022/08/10 09:38:46;;;;;;;10.10;1.92;;;;;;;32.37;29.64;102232.69;5006796;28;20041;-83
2022/08/10 09:41:40;;;;;;;5.75;1.98;;;;;;;32.54;29.62;102240.47;4997275;28;20032;-83
2022/08/10 09:44:35;;;;;;;3.55;1.83;;;;;;;32.35;28.03;102230.28;5013159;28;20091;-83
2022/08/10 09:47:36;;;;;;;3.83;1.85;;;;;;;32.20;28.58;102233.75;4961875;28;20114;-84
2022/08/10 09:50:30;;;;;;;7.57;2.03;;;;;;;32.15;28.12;102224.91;5010324;28;20029;-83
2022/08/10 09:53:23;;;;;;;7.03;2.05;;;;;;;32.31;28.61;102221.16;5009183;28;20856;-83
2022/08/10 09:56:06;;;;;;;3.38;2.00;;;;;;;31.91;28.59;102225.41;5002721;28;20125;-83
2022/08/10 09:59:04;;;;;;;4.72;2.08;;;;;;;31.96;29.57;102224.59;4993827;28;20045;-83
2022/08/10 10:01:57;;;;;;;4.97;1.77;;;;;;;32.16;29.50;102211.22;4980873;28;20044;-81
2022/08/10 10:04:32;;;;;;;5.05;1.90;;;;;;;32.28;27.85;102213.63;4990531;28;20030;-84
2022/08/10 10:07:02;;;;;;;5.85;2.00;;;;;;;31.85;28.01;102213.03;4992098;28;20032;-82
2022/08/10 10:09:55;;;;;;;4.65;2.28;;;;;;;31.61;28.14;102205.50;5008350;28;20487;-82
2022/08/10 10:12:28;;;;;;;10.55;2.20;;;;;;;31.82;29.16;102210.91;5012525;28;20033;-82
2022/08/10 10:15:24;;;;;;;4.03;2.10;;;;;;;31.62;28.33;102209.00;4994903;28;20029;-83
2022/08/10 10:18:19;;;;;;;2.47;2.10;;;;;;;31.81;27.48;102185.16;4995334;28;20116;-83
2022/08/10 10:21:04;;;;;;;4.95;2.03;;;;;;;32.16;28.42;102197.03;4975937;28;20049;-83
2022/08/10 10:23:29;;;;;;;5.55;2.17;;;;;;;32.26;28.33;102183.59;4991860;28;20034;-82
2022/08/10 10:26:18;;;;;;;3.95;2.28;;;;;;;32.01;27.63;102195.91;4992972;28;20133;-83
2022/08/10 10:29:15;;;;;;;3.97;2.20;;;;;;;31.66;28.84;102198.53;5004676;28;20064;-83
2022/08/10 10:32:16;;;;;;;7.53;2.30;;;;;;;32.18;28.70;102189.50;5005878;28;20044;-82
2022/08/10 10:34:58;;;;;;;5.65;2.47;;;;;;;32.10;27.20;102185.50;5009324;28;20669;-82
2022/08/10 10:37:24;;;;;;;5.53;3.00;;;;;;;32.20;27.27;102179.31;4997129;28;20050;-82
2022/08/10 10:39:54;;;;;;;4.70;2.55;;;;;;;32.15;27.23;102182.00;5009354;28;20512;-82
2022/08/10 10:42:32;;;;;;;8.85;2.20;;;;;;;32.00;28.20;102180.91;4996810;28;20091;-83
2022/08/10 10:45:03;;;;;;;4.18;1.95;;;;;;;32.36;27.42;102172.03;4995628;28;20033;-84
2022/08/10 10:47:52;;;;;;;7.50;2.30;;;;;;;32.49;27.01;102163.44;5012210;28;20616;-84
2022/08/10 10:50:30;;;;;;;5.13;2.53;;;;;;;32.45;26.85;102159.69;4992092;28;20045;-83
2022/08/10 10:53:21;;;;;;;6.28;2.28;;;;;;;32.33;27.50;102159.19;5015216;28;20098;-83
2022/08/10 10:55:54;;;;;;;6.82;2.10;;;;;;;32.55;27.61;102154.31;4988443;28;20034;-82
2022/08/10 10:58:41;;;;;;;4.78;2.22;;;;;;;31.96;27.07;102157.56;5009820;28;20095;-83
2022/08/10 11:01:21;;;;;;;7.13;2.30;;;;;;;32.20;27.35;102157.84;4995162;28;20040;-84
2022/08/10 11:03:49;;;;;;;7.03;2.38;;;;;;;32.53;26.41;102150.28;4988069;28;20045;-83
2022/08/10 11:06:21;;;;;;;7.60;2.58;;;;;;;32.66;25.66;102140.88;5027129;28;20056;-84
2022/08/10 11:08:53;;;;;;;5.75;2.25;;;;;;;32.67;26.32;102129.06;5008698;28;20089;-83
2022/08/10 11:11:33;;;;;;;4.93;2.10;;;;;;;32.66;26.37;102133.63;5001390;28;20038;-84
2022/08/10 11:14:26;;;;;;;9.02;2.40;;;;;;;32.31;26.96;102137.19;5005883;28;20034;-83
2022/08/10 11:17:04;;;;;;;4.72;2.13;;;;;;;32.18;27.01;102136.66;5009254;28;20052;-83
2022/08/10 11:19:45;;;;;;;3.63;2.00;;;;;;;32.57;26.61;102132.59;5007108;28;20041;-83
2022/08/10 11:22:21;;;;;;;2.72;1.90;;;;;;;32.47;26.75;102135.25;5003308;28;20034;-85
2022/08/10 11:24:55;;;;;;;2.78;2.25;;;;;;;32.21;26.32;102132.63;5006342;28;20112;-83
2022/08/10 11:27:37;;;;;;;4.57;2.05;;;;;;;32.10;26.60;102126.47;5006800;28;20046;-84
2022/08/10 11:30:17;;;;;;;3.72;2.13;;;;;;;32.08;27.11;102125.94;4984414;28;20037;-83
2022/08/10 11:33:01;;;;;;;3.70;1.95;;;;;;;32.18;26.62;102125.94;4990778;28;20517;-85
2022/08/10 11:35:46;;;;;;;4.28;2.25;;;;;;;32.26;26.88;102121.09;5007956;28;20061;-87
2022/08/10 11:38:26;;;;;;;3.22;2.20;;;;;;;31.89;26.50;102120.31;4995213;28;20133;-83
2022/08/10 11:41:03;;;;;;;6.00;2.20;;;;;;;32.15;27.12;102112.25;5006395;28;20546;-83
2022/08/10 11:43:36;;;;;;;7.15;3.28;;;;;;;32.55;26.39;102108.69;5008030;28;20037;-84
2022/08/10 11:46:20;;;;;;;2.28;1.98;;;;;;;32.65;26.86;102109.75;4993548;28;20045;-85
2022/08/10 11:48:51;;;;;;;7.75;2.20;;;;;;;32.63;26.28;102111.91;4984483;28;20116;-83
2022/08/10 11:51:52;;;;;;;5.00;2.40;;;;;;;32.63;26.61;102101.97;5002770;28;20072;-83
2022/08/10 11:54:27;;;;;;;36.67;24.48;;;;;;;32.28;26.80;102106.31;4978713;28;20499;-83
2022/08/10 11:56:57;;;;;;;5.03;2.58;;;;;;;32.53;27.90;102101.97;5010006;28;20679;-84